sensor_id;sensor_type;location;lat;lon;timestamp;P1;durP1;ratioP1;P2;durP2;ratioP2
14892;SDS011;7538;53.626;9.906;2023-07-24T00:00:02;4.97;;;4.55;;
14892;SDS011;7538;53.626;9.906;2023-07-24T00:02:30;5.05;;;4.55;;
14892;SDS011;7538;53.626;9.906;2023-07-24T00:04:56;5.20;;;4.63;;
14892;SDS011;7538;53.626;9.906;2023-07-24T00:07:23;5.63;;;5.07;;
14892;SDS011;7538;53.626;9.906;2023-07-24T00:09:50;5.03;;;4.53;;
14892;SDS011;7538;53.626;9.906;2023-07-24T00:12:17;7.88;;;4.85;;
14892;SDS011;7538;53.626;9.906;2023-07-24T00:14:44;5.70;;;4.13;;
14892;SDS011;7538;53.626;9.906;2023-07-24T00:17:12;4.90;;;4.40;;
14892;SDS011;7538;53.626;9.906;2023-07-24T00:19:39;5.30;;;4.80;;
14892;SDS011;7538;53.626;9.906;2023-07-24T00:22:06;6.47;;;4.78;;
14892;SDS011;7538;53.626;9.906;2023-07-24T00:24:35;5.03;;;4.53;;
14892;SDS011;7538;53.626;9.906;2023-07-24T00:27:02;5.15;;;4.65;;
14892;SDS011;7538;53.626;9.906;2023-07-24T00:29:29;6.32;;;5.10;;
14892;SDS011;7538;53.626;9.906;2023-07-24T00:31:56;5.03;;;4.38;;
14892;SDS011;7538;53.626;9.906;2023-07-24T00:34:24;5.18;;;4.65;;
14892;SDS011;7538;53.626;9.906;2023-07-24T00:36:51;5.50;;;5.00;;
14892;SDS011;7538;53.626;9.906;2023-07-24T00:39:18;5.40;;;4.90;;
14892;SDS011;7538;53.626;9.906;2023-07-24T00:41:45;5.72;;;4.78;;
14892;SDS011;7538;53.626;9.906;2023-07-24T00:44:11;4.75;;;4.28;;
14892;SDS011;7538;53.626;9.906;2023-07-24T00:46:38;5.00;;;4.60;;
14892;SDS011;7538;53.626;9.906;2023-07-24T00:49:05;6.32;;;4.90;;
14892;SDS011;7538;53.626;9.906;2023-07-24T00:51:34;5.47;;;4.97;;
14892;SDS011;7538;53.626;9.906;2023-07-24T00:54:02;5.65;;;4.78;;
14892;SDS011;7538;53.626;9.906;2023-07-24T00:56:30;5.90;;;5.40;;
14892;SDS011;7538;53.626;9.906;2023-07-24T00:58:58;5.43;;;4.88;;
14892;SDS011;7538;53.626;9.906;2023-07-24T01:01:27;5.32;;;4.82;;
14892;SDS011;7538;53.626;9.906;2023-07-24T01:03:56;6.90;;;4.95;;
14892;SDS011;7538;53.626;9.906;2023-07-24T01:06:23;6.00;;;5.35;;
14892;SDS011;7538;53.626;9.906;2023-07-24T01:08:52;7.05;;;5.47;;
14892;SDS011;7538;53.626;9.906;2023-07-24T01:11:19;5.53;;;5.03;;
14892;SDS011;7538;53.626;9.906;2023-07-24T01:13:56;6.90;;;5.40;;
14892;SDS011;7538;53.626;9.906;2023-07-24T01:16:30;6.38;;;5.28;;
14892;SDS011;7538;53.626;9.906;2023-07-24T01:19:02;6.90;;;6.20;;
14892;SDS011;7538;53.626;9.906;2023-07-24T01:21:38;6.50;;;5.90;;
14892;SDS011;7538;53.626;9.906;2023-07-24T01:24:28;6.80;;;5.85;;
14892;SDS011;7538;53.626;9.906;2023-07-24T01:27:05;6.07;;;5.47;;
14892;SDS011;7538;53.626;9.906;2023-07-24T01:29:33;6.60;;;6.05;;
14892;SDS011;7538;53.626;9.906;2023-07-24T01:32:00;6.25;;;5.63;;
14892;SDS011;7538;53.626;9.906;2023-07-24T01:34:27;7.30;;;6.55;;
14892;SDS011;7538;53.626;9.906;2023-07-24T01:36:56;6.85;;;5.60;;
14892;SDS011;7538;53.626;9.906;2023-07-24T01:39:23;6.65;;;6.03;;
14892;SDS011;7538;53.626;9.906;2023-07-24T01:41:51;5.97;;;5.47;;
14892;SDS011;7538;53.626;9.906;2023-07-24T01:44:21;6.95;;;6.25;;
14892;SDS011;7538;53.626;9.906;2023-07-24T01:46:49;7.53;;;5.85;;
14892;SDS011;7538;53.626;9.906;2023-07-24T01:49:16;5.80;;;5.30;;
14892;SDS011;7538;53.626;9.906;2023-07-24T01:51:43;6.30;;;5.72;;
14892;SDS011;7538;53.626;9.906;2023-07-24T01:54:10;6.78;;;5.38;;
14892;SDS011;7538;53.626;9.906;2023-07-24T01:56:37;5.57;;;5.07;;
14892;SDS011;7538;53.626;9.906;2023-07-24T01:59:04;6.10;;;5.50;;
14892;SDS011;7538;53.626;9.906;2023-07-24T02:01:33;6.03;;;5.30;;
14892;SDS011;7538;53.626;9.906;2023-07-24T02:04:00;5.88;;;5.28;;
14892;SDS011;7538;53.626;9.906;2023-07-24T02:06:27;7.50;;;5.80;;
14892;SDS011;7538;53.626;9.906;2023-07-24T02:08:53;5.45;;;4.88;;
14892;SDS011;7538;53.626;9.906;2023-07-24T02:11:20;5.93;;;5.38;;
14892;SDS011;7538;53.626;9.906;2023-07-24T02:13:47;5.30;;;4.80;;
14892;SDS011;7538;53.626;9.906;2023-07-24T02:16:14;6.80;;;5.72;;
14892;SDS011;7538;53.626;9.906;2023-07-24T02:18:42;6.40;;;5.72;;
14892;SDS011;7538;53.626;9.906;2023-07-24T02:21:09;6.85;;;6.25;;
14892;SDS011;7538;53.626;9.906;2023-07-24T02:23:36;5.22;;;4.70;;
14892;SDS011;7538;53.626;9.906;2023-07-24T02:26:03;6.32;;;5.72;;
14892;SDS011;7538;53.626;9.906;2023-07-24T02:28:30;6.22;;;5.68;;
14892;SDS011;7538;53.626;9.906;2023-07-24T02:30:57;7.78;;;6.97;;
14892;SDS011;7538;53.626;9.906;2023-07-24T02:33:25;7.72;;;7.03;;
14892;SDS011;7538;53.626;9.906;2023-07-24T02:35:53;9.38;;;7.90;;
14892;SDS011;7538;53.626;9.906;2023-07-24T02:38:20;7.82;;;7.10;;
14892;SDS011;7538;53.626;9.906;2023-07-24T02:40:47;8.07;;;7.28;;
14892;SDS011;7538;53.626;9.906;2023-07-24T02:43:14;8.45;;;7.65;;
14892;SDS011;7538;53.626;9.906;2023-07-24T02:45:41;9.73;;;8.48;;
14892;SDS011;7538;53.626;9.906;2023-07-24T02:48:08;8.82;;;8.02;;
14892;SDS011;7538;53.626;9.906;2023-07-24T02:50:35;9.13;;;8.27;;
14892;SDS011;7538;53.626;9.906;2023-07-24T02:53:03;10.23;;;9.25;;
14892;SDS011;7538;53.626;9.906;2023-07-24T02:55:30;11.15;;;9.95;;
14892;SDS011;7538;53.626;9.906;2023-07-24T02:57:57;9.82;;;8.95;;
14892;SDS011;7538;53.626;9.906;2023-07-24T03:00:23;10.60;;;9.60;;
14892;SDS011;7538;53.626;9.906;2023-07-24T03:02:50;9.75;;;8.85;;
14892;SDS011;7538;53.626;9.906;2023-07-24T03:05:21;10.85;;;9.20;;
14892;SDS011;7538;53.626;9.906;2023-07-24T03:07:47;10.07;;;9.07;;
14892;SDS011;7538;53.626;9.906;2023-07-24T03:10:16;9.65;;;8.75;;
14892;SDS011;7538;53.626;9.906;2023-07-24T03:12:45;10.35;;;8.30;;
14892;SDS011;7538;53.626;9.906;2023-07-24T03:15:12;11.05;;;8.25;;
14892;SDS011;7538;53.626;9.906;2023-07-24T03:17:39;8.80;;;8.02;;
14892;SDS011;7538;53.626;9.906;2023-07-24T03:20:12;9.18;;;8.25;;
14892;SDS011;7538;53.626;9.906;2023-07-24T03:22:41;8.82;;;8.02;;
14892;SDS011;7538;53.626;9.906;2023-07-24T03:25:08;10.18;;;7.95;;
14892;SDS011;7538;53.626;9.906;2023-07-24T03:27:37;9.18;;;7.43;;
14892;SDS011;7538;53.626;9.906;2023-07-24T03:30:04;7.97;;;7.28;;
14892;SDS011;7538;53.626;9.906;2023-07-24T03:36:02;7.60;;;6.50;;
14892;SDS011;7538;53.626;9.906;2023-07-24T03:38:35;8.05;;;6.57;;
14892;SDS011;7538;53.626;9.906;2023-07-24T03:41:02;9.25;;;6.72;;
14892;SDS011;7538;53.626;9.906;2023-07-24T03:43:31;8.45;;;6.30;;
14892;SDS011;7538;53.626;9.906;2023-07-24T03:45:57;7.95;;;7.10;;
14892;SDS011;7538;53.626;9.906;2023-07-24T03:51:01;7.00;;;6.30;;
14892;SDS011;7538;53.626;9.906;2023-07-24T03:53:29;7.75;;;6.95;;
14892;SDS011;7538;53.626;9.906;2023-07-24T03:55:57;7.82;;;5.80;;
14892;SDS011;7538;53.626;9.906;2023-07-24T03:58:26;7.05;;;6.35;;
14892;SDS011;7538;53.626;9.906;2023-07-24T04:00:57;9.15;;;7.32;;
14892;SDS011;7538;53.626;9.906;2023-07-24T04:03:24;6.90;;;6.28;;
14892;SDS011;7538;53.626;9.906;2023-07-24T04:05:51;8.65;;;7.05;;
14892;SDS011;7538;53.626;9.906;2023-07-24T04:08:18;7.90;;;7.20;;
14892;SDS011;7538;53.626;9.906;2023-07-24T04:10:45;6.75;;;6.05;;
14892;SDS011;7538;53.626;9.906;2023-07-24T04:13:12;6.05;;;5.45;;
14892;SDS011;7538;53.626;9.906;2023-07-24T04:15:39;8.07;;;6.95;;
14892;SDS011;7538;53.626;9.906;2023-07-24T04:18:08;6.70;;;6.10;;
14892;SDS011;7538;53.626;9.906;2023-07-24T04:20:35;7.20;;;5.95;;
14892;SDS011;7538;53.626;9.906;2023-07-24T04:23:02;6.85;;;6.18;;
14892;SDS011;7538;53.626;9.906;2023-07-24T04:25:32;6.85;;;6.15;;
14892;SDS011;7538;53.626;9.906;2023-07-24T04:27:59;7.10;;;6.40;;
14892;SDS011;7538;53.626;9.906;2023-07-24T04:30:26;6.68;;;6.05;;
14892;SDS011;7538;53.626;9.906;2023-07-24T04:32:53;7.90;;;6.63;;
14892;SDS011;7538;53.626;9.906;2023-07-24T04:35:21;6.65;;;5.90;;
14892;SDS011;7538;53.626;9.906;2023-07-24T04:37:48;8.85;;;6.70;;
14892;SDS011;7538;53.626;9.906;2023-07-24T04:40:16;6.13;;;5.63;;
14892;SDS011;7538;53.626;9.906;2023-07-24T04:42:43;6.47;;;5.88;;
14892;SDS011;7538;53.626;9.906;2023-07-24T04:45:10;6.28;;;5.68;;
14892;SDS011;7538;53.626;9.906;2023-07-24T04:47:37;7.45;;;6.00;;
14892;SDS011;7538;53.626;9.906;2023-07-24T04:50:04;7.50;;;6.45;;
14892;SDS011;7538;53.626;9.906;2023-07-24T04:52:33;6.03;;;5.43;;
14892;SDS011;7538;53.626;9.906;2023-07-24T04:55:00;6.85;;;5.82;;
14892;SDS011;7538;53.626;9.906;2023-07-24T04:57:27;7.93;;;5.72;;
14892;SDS011;7538;53.626;9.906;2023-07-24T04:59:54;6.60;;;5.90;;
14892;SDS011;7538;53.626;9.906;2023-07-24T05:02:21;6.65;;;5.43;;
14892;SDS011;7538;53.626;9.906;2023-07-24T05:04:48;6.22;;;5.65;;
14892;SDS011;7538;53.626;9.906;2023-07-24T05:07:15;7.00;;;6.18;;
14892;SDS011;7538;53.626;9.906;2023-07-24T05:09:43;5.85;;;5.25;;
14892;SDS011;7538;53.626;9.906;2023-07-24T05:12:10;6.88;;;5.97;;
14892;SDS011;7538;53.626;9.906;2023-07-24T05:14:37;6.25;;;5.65;;
14892;SDS011;7538;53.626;9.906;2023-07-24T05:17:04;7.00;;;6.30;;
14892;SDS011;7538;53.626;9.906;2023-07-24T05:19:31;6.95;;;6.35;;
14892;SDS011;7538;53.626;9.906;2023-07-24T05:21:58;6.28;;;5.65;;
14892;SDS011;7538;53.626;9.906;2023-07-24T05:24:25;6.75;;;5.80;;
14892;SDS011;7538;53.626;9.906;2023-07-24T05:26:54;5.95;;;5.35;;
14892;SDS011;7538;53.626;9.906;2023-07-24T05:29:20;6.75;;;5.22;;
14892;SDS011;7538;53.626;9.906;2023-07-24T05:31:48;6.78;;;5.68;;
14892;SDS011;7538;53.626;9.906;2023-07-24T05:34:15;6.15;;;5.55;;
14892;SDS011;7538;53.626;9.906;2023-07-24T05:36:42;7.03;;;6.20;;
14892;SDS011;7538;53.626;9.906;2023-07-24T05:39:12;6.65;;;5.80;;
14892;SDS011;7538;53.626;9.906;2023-07-24T05:41:38;5.55;;;5.05;;
14892;SDS011;7538;53.626;9.906;2023-07-24T05:44:07;6.65;;;5.95;;
14892;SDS011;7538;53.626;9.906;2023-07-24T05:46:34;6.97;;;5.90;;
14892;SDS011;7538;53.626;9.906;2023-07-24T05:49:03;6.32;;;5.70;;
14892;SDS011;7538;53.626;9.906;2023-07-24T05:51:29;6.35;;;5.72;;
14892;SDS011;7538;53.626;9.906;2023-07-24T05:53:56;6.00;;;5.43;;
14892;SDS011;7538;53.626;9.906;2023-07-24T05:56:26;6.32;;;5.72;;
14892;SDS011;7538;53.626;9.906;2023-07-24T05:58:55;7.70;;;5.85;;
14892;SDS011;7538;53.626;9.906;2023-07-24T06:01:24;6.25;;;5.65;;
14892;SDS011;7538;53.626;9.906;2023-07-24T06:03:51;8.95;;;6.50;;
14892;SDS011;7538;53.626;9.906;2023-07-24T06:06:20;6.28;;;5.68;;
14892;SDS011;7538;53.626;9.906;2023-07-24T06:08:47;6.50;;;5.28;;
14892;SDS011;7538;53.626;9.906;2023-07-24T06:11:16;7.07;;;6.38;;
14892;SDS011;7538;53.626;9.906;2023-07-24T06:13:43;6.35;;;5.75;;
14892;SDS011;7538;53.626;9.906;2023-07-24T06:16:10;7.15;;;6.15;;
14892;SDS011;7538;53.626;9.906;2023-07-24T06:18:41;6.78;;;5.32;;
14892;SDS011;7538;53.626;9.906;2023-07-24T06:21:08;5.20;;;4.80;;
14892;SDS011;7538;53.626;9.906;2023-07-24T06:23:35;5.60;;;5.03;;
14892;SDS011;7538;53.626;9.906;2023-07-24T06:26:02;7.03;;;6.18;;
14892;SDS011;7538;53.626;9.906;2023-07-24T06:28:29;6.55;;;5.95;;
14892;SDS011;7538;53.626;9.906;2023-07-24T06:30:57;7.03;;;6.28;;
14892;SDS011;7538;53.626;9.906;2023-07-24T06:33:27;6.80;;;6.20;;
14892;SDS011;7538;53.626;9.906;2023-07-24T06:35:55;6.30;;;5.80;;
14892;SDS011;7538;53.626;9.906;2023-07-24T06:38:22;6.40;;;5.80;;
14892;SDS011;7538;53.626;9.906;2023-07-24T06:40:52;5.97;;;5.47;;
14892;SDS011;7538;53.626;9.906;2023-07-24T06:43:19;6.25;;;5.65;;
14892;SDS011;7538;53.626;9.906;2023-07-24T06:45:52;5.80;;;5.30;;
14892;SDS011;7538;53.626;9.906;2023-07-24T06:48:23;6.60;;;6.00;;
14892;SDS011;7538;53.626;9.906;2023-07-24T06:50:50;6.55;;;5.93;;
14892;SDS011;7538;53.626;9.906;2023-07-24T06:53:18;6.75;;;6.07;;
14892;SDS011;7538;53.626;9.906;2023-07-24T06:55:45;6.35;;;5.75;;
14892;SDS011;7538;53.626;9.906;2023-07-24T06:58:12;6.70;;;6.10;;
14892;SDS011;7538;53.626;9.906;2023-07-24T07:00:42;6.80;;;5.70;;
14892;SDS011;7538;53.626;9.906;2023-07-24T07:03:12;6.00;;;5.50;;
14892;SDS011;7538;53.626;9.906;2023-07-24T07:05:39;6.13;;;5.53;;
14892;SDS011;7538;53.626;9.906;2023-07-24T07:08:08;6.07;;;5.53;;
14892;SDS011;7538;53.626;9.906;2023-07-24T07:10:36;6.25;;;5.75;;
14892;SDS011;7538;53.626;9.906;2023-07-24T07:13:03;6.05;;;5.45;;
14892;SDS011;7538;53.626;9.906;2023-07-24T07:15:30;6.10;;;5.50;;
14892;SDS011;7538;53.626;9.906;2023-07-24T07:17:57;6.75;;;6.15;;
14892;SDS011;7538;53.626;9.906;2023-07-24T07:20:24;6.43;;;5.93;;
14892;SDS011;7538;53.626;9.906;2023-07-24T07:22:51;7.50;;;6.80;;
14892;SDS011;7538;53.626;9.906;2023-07-24T07:25:18;6.68;;;6.07;;
14892;SDS011;7538;53.626;9.906;2023-07-24T07:27:46;6.90;;;6.20;;
14892;SDS011;7538;53.626;9.906;2023-07-24T07:30:13;7.03;;;6.43;;
14892;SDS011;7538;53.626;9.906;2023-07-24T07:32:40;8.13;;;7.32;;
14892;SDS011;7538;53.626;9.906;2023-07-24T07:35:07;7.70;;;7.00;;
14892;SDS011;7538;53.626;9.906;2023-07-24T07:37:34;7.68;;;6.97;;
14892;SDS011;7538;53.626;9.906;2023-07-24T07:40:01;7.10;;;6.50;;
14892;SDS011;7538;53.626;9.906;2023-07-24T07:42:29;7.72;;;7.03;;
14892;SDS011;7538;53.626;9.906;2023-07-24T07:44:58;6.63;;;6.13;;
14892;SDS011;7538;53.626;9.906;2023-07-24T07:47:25;6.95;;;6.25;;
14892;SDS011;7538;53.626;9.906;2023-07-24T07:49:52;7.50;;;6.80;;
14892;SDS011;7538;53.626;9.906;2023-07-24T07:52:18;8.38;;;7.57;;
14892;SDS011;7538;53.626;9.906;2023-07-24T07:54:47;7.75;;;7.15;;
14892;SDS011;7538;53.626;9.906;2023-07-24T07:57:17;8.05;;;7.25;;
14892;SDS011;7538;53.626;9.906;2023-07-24T07:59:45;7.75;;;7.07;;
14892;SDS011;7538;53.626;9.906;2023-07-24T08:02:13;8.07;;;7.38;;
14892;SDS011;7538;53.626;9.906;2023-07-24T08:04:40;7.40;;;6.63;;
14892;SDS011;7538;53.626;9.906;2023-07-24T08:07:07;7.20;;;6.50;;
14892;SDS011;7538;53.626;9.906;2023-07-24T08:09:34;7.85;;;7.15;;
14892;SDS011;7538;53.626;9.906;2023-07-24T08:12:03;8.23;;;7.13;;
14892;SDS011;7538;53.626;9.906;2023-07-24T08:14:30;8.23;;;7.25;;
14892;SDS011;7538;53.626;9.906;2023-07-24T08:16:57;7.82;;;7.13;;
14892;SDS011;7538;53.626;9.906;2023-07-24T08:19:28;7.20;;;6.50;;
14892;SDS011;7538;53.626;9.906;2023-07-24T08:21:55;7.53;;;6.75;;
14892;SDS011;7538;53.626;9.906;2023-07-24T08:24:22;8.00;;;7.30;;
14892;SDS011;7538;53.626;9.906;2023-07-24T08:26:49;6.97;;;6.47;;
14892;SDS011;7538;53.626;9.906;2023-07-24T08:29:16;7.07;;;6.38;;
14892;SDS011;7538;53.626;9.906;2023-07-24T08:31:43;7.18;;;6.50;;
14892;SDS011;7538;53.626;9.906;2023-07-24T08:34:10;7.30;;;6.65;;
14892;SDS011;7538;53.626;9.906;2023-07-24T08:36:38;9.75;;;7.72;;
14892;SDS011;7538;53.626;9.906;2023-07-24T08:39:05;8.82;;;7.72;;
14892;SDS011;7538;53.626;9.906;2023-07-24T08:41:32;7.63;;;6.93;;
14892;SDS011;7538;53.626;9.906;2023-07-24T08:44:00;6.82;;;6.20;;
14892;SDS011;7538;53.626;9.906;2023-07-24T08:46:28;6.88;;;6.28;;
14892;SDS011;7538;53.626;9.906;2023-07-24T08:48:55;7.25;;;6.65;;
14892;SDS011;7538;53.626;9.906;2023-07-24T08:51:22;6.85;;;6.15;;
14892;SDS011;7538;53.626;9.906;2023-07-24T08:53:52;6.80;;;6.20;;
14892;SDS011;7538;53.626;9.906;2023-07-24T08:56:19;7.10;;;6.50;;
14892;SDS011;7538;53.626;9.906;2023-07-24T08:58:48;7.57;;;6.68;;
14892;SDS011;7538;53.626;9.906;2023-07-24T09:01:24;6.22;;;5.63;;
14892;SDS011;7538;53.626;9.906;2023-07-24T09:03:51;6.60;;;6.00;;
14892;SDS011;7538;53.626;9.906;2023-07-24T09:06:18;6.10;;;5.50;;
14892;SDS011;7538;53.626;9.906;2023-07-24T09:08:45;6.43;;;5.82;;
14892;SDS011;7538;53.626;9.906;2023-07-24T09:11:14;6.45;;;5.18;;
14892;SDS011;7538;53.626;9.906;2023-07-24T09:13:42;6.00;;;5.40;;
14892;SDS011;7538;53.626;9.906;2023-07-24T09:16:09;8.25;;;6.32;;
14892;SDS011;7538;53.626;9.906;2023-07-24T09:18:47;5.90;;;5.40;;
14892;SDS011;7538;53.626;9.906;2023-07-24T09:21:26;5.88;;;5.28;;
14892;SDS011;7538;53.626;9.906;2023-07-24T09:23:53;6.97;;;5.15;;
14892;SDS011;7538;53.626;9.906;2023-07-24T09:26:22;5.55;;;5.07;;
14892;SDS011;7538;53.626;9.906;2023-07-24T09:28:52;5.47;;;4.97;;
14892;SDS011;7538;53.626;9.906;2023-07-24T09:31:21;5.38;;;4.90;;
14892;SDS011;7538;53.626;9.906;2023-07-24T09:33:49;6.40;;;5.80;;
14892;SDS011;7538;53.626;9.906;2023-07-24T09:36:16;6.63;;;5.53;;
14892;SDS011;7538;53.626;9.906;2023-07-24T09:38:43;6.90;;;5.50;;
14892;SDS011;7538;53.626;9.906;2023-07-24T09:41:11;5.85;;;5.25;;
14892;SDS011;7538;53.626;9.906;2023-07-24T09:43:41;6.00;;;5.53;;
14892;SDS011;7538;53.626;9.906;2023-07-24T09:46:08;6.18;;;5.57;;
14892;SDS011;7538;53.626;9.906;2023-07-24T09:48:35;5.97;;;5.38;;
14892;SDS011;7538;53.626;9.906;2023-07-24T09:51:02;5.30;;;4.90;;
14892;SDS011;7538;53.626;9.906;2023-07-24T09:53:31;6.47;;;5.50;;
14892;SDS011;7538;53.626;9.906;2023-07-24T09:56:00;5.88;;;5.07;;
14892;SDS011;7538;53.626;9.906;2023-07-24T09:58:28;5.55;;;5.05;;
14892;SDS011;7538;53.626;9.906;2023-07-24T10:01:00;5.57;;;5.07;;
14892;SDS011;7538;53.626;9.906;2023-07-24T10:03:31;5.57;;;5.07;;
14892;SDS011;7538;53.626;9.906;2023-07-24T10:05:59;5.10;;;4.60;;
14892;SDS011;7538;53.626;9.906;2023-07-24T10:08:27;6.47;;;5.80;;
14892;SDS011;7538;53.626;9.906;2023-07-24T10:10:54;6.22;;;5.53;;
14892;SDS011;7538;53.626;9.906;2023-07-24T10:13:21;5.40;;;5.00;;
14892;SDS011;7538;53.626;9.906;2023-07-24T10:15:49;6.25;;;5.53;;
14892;SDS011;7538;53.626;9.906;2023-07-24T10:18:17;6.03;;;5.53;;
14892;SDS011;7538;53.626;9.906;2023-07-24T10:20:59;5.43;;;4.93;;
14892;SDS011;7538;53.626;9.906;2023-07-24T10:23:27;5.22;;;4.72;;
14892;SDS011;7538;53.626;9.906;2023-07-24T10:25:54;5.93;;;5.43;;
14892;SDS011;7538;53.626;9.906;2023-07-24T10:28:30;5.85;;;4.95;;
14892;SDS011;7538;53.626;9.906;2023-07-24T10:30:58;5.57;;;4.90;;
14892;SDS011;7538;53.626;9.906;2023-07-24T10:33:30;5.70;;;5.20;;
14892;SDS011;7538;53.626;9.906;2023-07-24T10:36:08;15.57;;;13.95;;
14892;SDS011;7538;53.626;9.906;2023-07-24T10:38:38;10.57;;;8.15;;
14892;SDS011;7538;53.626;9.906;2023-07-24T10:41:07;6.90;;;5.35;;
14892;SDS011;7538;53.626;9.906;2023-07-24T10:43:44;25.83;;;18.27;;
14892;SDS011;7538;53.626;9.906;2023-07-24T10:46:13;9.02;;;7.25;;
14892;SDS011;7538;53.626;9.906;2023-07-24T10:48:43;7.75;;;6.45;;
14892;SDS011;7538;53.626;9.906;2023-07-24T10:51:12;7.30;;;5.88;;
14892;SDS011;7538;53.626;9.906;2023-07-24T10:53:41;6.10;;;5.60;;
14892;SDS011;7538;53.626;9.906;2023-07-24T10:56:10;6.65;;;5.60;;
14892;SDS011;7538;53.626;9.906;2023-07-24T10:58:40;6.20;;;5.60;;
14892;SDS011;7538;53.626;9.906;2023-07-24T11:01:08;5.55;;;5.05;;
14892;SDS011;7538;53.626;9.906;2023-07-24T11:03:35;5.63;;;5.03;;
14892;SDS011;7538;53.626;9.906;2023-07-24T11:06:04;4.93;;;4.53;;
14892;SDS011;7538;53.626;9.906;2023-07-24T11:08:38;5.72;;;5.13;;
14892;SDS011;7538;53.626;9.906;2023-07-24T11:11:05;5.60;;;5.15;;
14892;SDS011;7538;53.626;9.906;2023-07-24T11:13:34;5.15;;;4.55;;
14892;SDS011;7538;53.626;9.906;2023-07-24T11:16:03;5.90;;;5.40;;
14892;SDS011;7538;53.626;9.906;2023-07-24T11:18:31;6.28;;;5.13;;
14892;SDS011;7538;53.626;9.906;2023-07-24T11:20:58;6.13;;;5.25;;
14892;SDS011;7538;53.626;9.906;2023-07-24T11:23:27;5.63;;;5.00;;
14892;SDS011;7538;53.626;9.906;2023-07-24T11:25:54;5.40;;;4.90;;
14892;SDS011;7538;53.626;9.906;2023-07-24T11:28:21;5.07;;;4.65;;
14892;SDS011;7538;53.626;9.906;2023-07-24T11:30:48;5.78;;;4.95;;
14892;SDS011;7538;53.626;9.906;2023-07-24T11:33:16;5.00;;;4.50;;
14892;SDS011;7538;53.626;9.906;2023-07-24T11:35:45;6.40;;;5.07;;
14892;SDS011;7538;53.626;9.906;2023-07-24T11:38:13;5.15;;;4.75;;
14892;SDS011;7538;53.626;9.906;2023-07-24T11:40:42;5.07;;;4.68;;
14892;SDS011;7538;53.626;9.906;2023-07-24T11:43:16;6.35;;;4.70;;
14892;SDS011;7538;53.626;9.906;2023-07-24T11:45:45;5.03;;;4.63;;
14892;SDS011;7538;53.626;9.906;2023-07-24T11:48:13;4.90;;;4.50;;
14892;SDS011;7538;53.626;9.906;2023-07-24T11:50:41;5.93;;;5.43;;
14892;SDS011;7538;53.626;9.906;2023-07-24T11:53:17;5.88;;;5.20;;
14892;SDS011;7538;53.626;9.906;2023-07-24T11:55:46;5.63;;;5.13;;
14892;SDS011;7538;53.626;9.906;2023-07-24T11:58:14;5.30;;;4.80;;
14892;SDS011;7538;53.626;9.906;2023-07-24T12:00:42;5.22;;;4.70;;
14892;SDS011;7538;53.626;9.906;2023-07-24T12:03:09;5.35;;;4.55;;
14892;SDS011;7538;53.626;9.906;2023-07-24T12:05:39;4.93;;;4.53;;
14892;SDS011;7538;53.626;9.906;2023-07-24T12:08:06;5.80;;;5.18;;
14892;SDS011;7538;53.626;9.906;2023-07-24T12:10:36;5.43;;;4.93;;
14892;SDS011;7538;53.626;9.906;2023-07-24T12:13:05;4.85;;;4.40;;
14892;SDS011;7538;53.626;9.906;2023-07-24T12:15:32;5.20;;;4.70;;
14892;SDS011;7538;53.626;9.906;2023-07-24T12:18:00;5.45;;;4.55;;
14892;SDS011;7538;53.626;9.906;2023-07-24T12:20:27;4.25;;;3.85;;
14892;SDS011;7538;53.626;9.906;2023-07-24T12:22:55;5.25;;;4.45;;
14892;SDS011;7538;53.626;9.906;2023-07-24T12:25:22;5.80;;;4.85;;
14892;SDS011;7538;53.626;9.906;2023-07-24T12:27:50;4.60;;;4.20;;
14892;SDS011;7538;53.626;9.906;2023-07-24T12:30:19;4.50;;;4.10;;
14892;SDS011;7538;53.626;9.906;2023-07-24T12:32:46;5.00;;;4.60;;
14892;SDS011;7538;53.626;9.906;2023-07-24T12:35:15;4.82;;;4.20;;
14892;SDS011;7538;53.626;9.906;2023-07-24T12:37:42;4.25;;;3.95;;
14892;SDS011;7538;53.626;9.906;2023-07-24T12:40:10;5.13;;;4.65;;
14892;SDS011;7538;53.626;9.906;2023-07-24T12:42:37;8.25;;;7.50;;
14892;SDS011;7538;53.626;9.906;2023-07-24T12:45:08;4.43;;;4.13;;
14892;SDS011;7538;53.626;9.906;2023-07-24T12:47:36;5.13;;;4.72;;
14892;SDS011;7538;53.626;9.906;2023-07-24T12:50:03;4.85;;;4.55;;
14892;SDS011;7538;53.626;9.906;2023-07-24T12:52:30;5.15;;;4.65;;
14892;SDS011;7538;53.626;9.906;2023-07-24T12:54:57;4.75;;;4.35;;
14892;SDS011;7538;53.626;9.906;2023-07-24T12:57:24;4.97;;;4.60;;
14892;SDS011;7538;53.626;9.906;2023-07-24T13:00:08;4.60;;;4.20;;
14892;SDS011;7538;53.626;9.906;2023-07-24T13:02:39;5.05;;;4.55;;
14892;SDS011;7538;53.626;9.906;2023-07-24T13:05:08;5.00;;;4.50;;
14892;SDS011;7538;53.626;9.906;2023-07-24T13:07:35;4.97;;;4.57;;
14892;SDS011;7538;53.626;9.906;2023-07-24T13:10:02;5.13;;;4.63;;
14892;SDS011;7538;53.626;9.906;2023-07-24T13:12:29;4.72;;;4.43;;
14892;SDS011;7538;53.626;9.906;2023-07-24T13:14:56;4.60;;;4.20;;
14892;SDS011;7538;53.626;9.906;2023-07-24T13:17:22;5.03;;;4.28;;
14892;SDS011;7538;53.626;9.906;2023-07-24T13:19:51;5.00;;;4.50;;
14892;SDS011;7538;53.626;9.906;2023-07-24T13:22:18;4.95;;;4.50;;
14892;SDS011;7538;53.626;9.906;2023-07-24T13:24:45;5.28;;;4.53;;
14892;SDS011;7538;53.626;9.906;2023-07-24T13:27:12;4.40;;;4.00;;
14892;SDS011;7538;53.626;9.906;2023-07-24T13:29:39;4.80;;;4.40;;
14892;SDS011;7538;53.626;9.906;2023-07-24T13:32:06;4.25;;;3.85;;
14892;SDS011;7538;53.626;9.906;2023-07-24T13:34:33;4.53;;;4.13;;
14892;SDS011;7538;53.626;9.906;2023-07-24T13:37:01;6.25;;;4.60;;
14892;SDS011;7538;53.626;9.906;2023-07-24T13:39:28;4.50;;;4.00;;
14892;SDS011;7538;53.626;9.906;2023-07-24T13:41:56;4.93;;;4.47;;
14892;SDS011;7538;53.626;9.906;2023-07-24T13:44:23;4.47;;;4.07;;
14892;SDS011;7538;53.626;9.906;2023-07-24T13:46:50;4.60;;;4.20;;
14892;SDS011;7538;53.626;9.906;2023-07-24T13:49:17;6.55;;;4.15;;
14892;SDS011;7538;53.626;9.906;2023-07-24T13:51:45;4.93;;;4.45;;
14892;SDS011;7538;53.626;9.906;2023-07-24T13:54:13;4.45;;;4.05;;
14892;SDS011;7538;53.626;9.906;2023-07-24T13:56:41;5.03;;;4.63;;
14892;SDS011;7538;53.626;9.906;2023-07-24T13:59:08;5.88;;;4.70;;
14892;SDS011;7538;53.626;9.906;2023-07-24T14:01:34;4.72;;;4.32;;
14892;SDS011;7538;53.626;9.906;2023-07-24T14:04:01;5.10;;;4.70;;
14892;SDS011;7538;53.626;9.906;2023-07-24T14:06:28;4.75;;;4.35;;
14892;SDS011;7538;53.626;9.906;2023-07-24T14:08:55;4.68;;;4.28;;
14892;SDS011;7538;53.626;9.906;2023-07-24T14:11:23;4.60;;;4.20;;
14892;SDS011;7538;53.626;9.906;2023-07-24T14:13:51;5.03;;;4.53;;
14892;SDS011;7538;53.626;9.906;2023-07-24T14:16:18;4.65;;;4.25;;
14892;SDS011;7538;53.626;9.906;2023-07-24T14:18:45;7.13;;;4.60;;
14892;SDS011;7538;53.626;9.906;2023-07-24T14:21:12;4.57;;;4.18;;
14892;SDS011;7538;53.626;9.906;2023-07-24T14:23:39;5.20;;;4.80;;
14892;SDS011;7538;53.626;9.906;2023-07-24T14:26:06;5.40;;;4.90;;
14892;SDS011;7538;53.626;9.906;2023-07-24T14:28:34;4.95;;;4.55;;
14892;SDS011;7538;53.626;9.906;2023-07-24T14:31:01;5.32;;;4.93;;
14892;SDS011;7538;53.626;9.906;2023-07-24T14:33:29;4.93;;;4.47;;
14892;SDS011;7538;53.626;9.906;2023-07-24T14:35:56;5.00;;;4.60;;
14892;SDS011;7538;53.626;9.906;2023-07-24T14:38:23;5.28;;;4.75;;
14892;SDS011;7538;53.626;9.906;2023-07-24T14:43:19;5.47;;;4.90;;
14892;SDS011;7538;53.626;9.906;2023-07-24T14:45:48;6.55;;;4.80;;
14892;SDS011;7538;53.626;9.906;2023-07-24T14:48:14;4.93;;;4.53;;
14892;SDS011;7538;53.626;9.906;2023-07-24T14:50:41;5.25;;;4.75;;
14892;SDS011;7538;53.626;9.906;2023-07-24T14:53:08;6.47;;;5.13;;
14892;SDS011;7538;53.626;9.906;2023-07-24T14:55:35;5.90;;;4.85;;
14892;SDS011;7538;53.626;9.906;2023-07-24T14:58:02;5.40;;;4.90;;
14892;SDS011;7538;53.626;9.906;2023-07-24T15:00:29;6.00;;;5.35;;
14892;SDS011;7538;53.626;9.906;2023-07-24T15:02:59;9.00;;;6.90;;
14892;SDS011;7538;53.626;9.906;2023-07-24T15:05:26;8.00;;;5.90;;
14892;SDS011;7538;53.626;9.906;2023-07-24T15:07:52;5.90;;;4.95;;
14892;SDS011;7538;53.626;9.906;2023-07-24T15:10:19;6.13;;;5.53;;
14892;SDS011;7538;53.626;9.906;2023-07-24T15:12:47;6.03;;;5.20;;